Time;durP1;ratioP1;P1;durP2;ratioP2;P2;SDS_P1;SDS_P2;PMS_P1;PMS_P2;Temp;Humidity;BMP_temperature;BMP_pressure;BME280_temperature;BME280_humidity;BME280_pressure;Samples;Min_cycle;Max_cycle;Signal;HPM_P1;HPM_P2
2022/03/25 00:00:26;;;;;;;16.43;13.70;;;;;;;7.33;nan;99031.34;5054939;28;20209;-69
2022/03/25 00:02:53;;;;;;;19.60;14.57;;;;;;;7.37;nan;99037.13;5054608;28;20217;-70
2022/03/25 00:05:20;;;;;;;22.40;15.07;;;;;;;7.28;nan;99032.88;5054342;28;20707;-70
2022/03/25 00:07:47;;;;;;;20.23;13.60;;;;;;;7.28;nan;99038.19;5054846;28;20212;-69
2022/03/25 00:10:13;;;;;;;20.77;14.10;;;;;;;7.26;nan;99038.34;5055326;28;20216;-70
2022/03/25 00:12:40;;;;;;;18.30;15.03;;;;;;;7.18;nan;99048.13;5054353;28;20660;-69
2022/03/25 00:15:06;;;;;;;20.00;14.57;;;;;;;7.11;nan;99040.06;5054566;28;20644;-69
2022/03/25 00:17:33;;;;;;;19.57;14.63;;;;;;;7.10;nan;99037.63;5054642;28;20202;-69
2022/03/25 00:20:00;;;;;;;19.27;14.93;;;;;;;7.06;nan;99037.13;5054608;28;20212;-70
2022/03/25 00:22:26;;;;;;;19.57;14.70;;;;;;;7.06;nan;99034.47;5054844;28;20201;-69
2022/03/25 00:24:52;;;;;;;22.83;14.03;;;;;;;7.01;nan;99041.28;5054408;28;20225;-69
2022/03/25 00:27:19;;;;;;;21.23;14.20;;;;;;;6.90;nan;99036.38;5054326;28;20221;-70
2022/03/25 00:29:45;;;;;;;22.53;14.20;;;;;;;6.90;nan;99034.56;5054382;28;20201;-69
2022/03/25 00:32:11;;;;;;;18.03;13.90;;;;;;;6.86;nan;99029.78;5054334;28;20209;-69
2022/03/25 00:34:38;;;;;;;18.67;13.47;;;;;;;6.81;nan;99034.75;5053903;28;20248;-69
2022/03/25 00:37:05;;;;;;;19.47;14.67;;;;;;;6.78;nan;99029.84;5053773;28;20664;-70
2022/03/25 00:39:31;;;;;;;19.80;14.37;;;;;;;6.75;nan;99025.69;5053956;28;20571;-70
2022/03/25 00:41:57;;;;;;;20.57;14.67;;;;;;;6.76;nan;99026.53;5053863;28;20212;-70
2022/03/25 00:44:24;;;;;;;18.40;14.33;;;;;;;6.71;nan;99019.13;5053704;28;20750;-69
2022/03/25 00:46:51;;;;;;;22.67;14.83;;;;;;;6.70;nan;99022.75;5053706;28;20221;-69
2022/03/25 00:49:17;;;;;;;19.57;15.50;;;;;;;6.67;nan;99017.81;5054074;28;20209;-69
2022/03/25 00:51:44;;;;;;;19.17;14.53;;;;;;;6.65;nan;99029.56;5053959;28;20228;-69
2022/03/25 00:54:10;;;;;;;17.80;13.60;;;;;;;6.61;nan;99022.97;5053932;28;20235;-70
2022/03/25 00:56:36;;;;;;;19.30;14.40;;;;;;;6.61;nan;99018.47;5053851;28;20201;-69
2022/03/25 00:59:03;;;;;;;19.23;14.10;;;;;;;6.58;nan;99015.38;5053902;28;20235;-70
2022/03/25 01:01:29;;;;;;;18.90;13.93;;;;;;;6.58;nan;99008.28;5053870;28;20211;-69
2022/03/25 01:03:56;;;;;;;20.87;13.63;;;;;;;6.58;nan;99010.06;5053410;28;20279;-69
2022/03/25 01:06:24;;;;;;;21.43;14.47;;;;;;;6.57;nan;99005.78;5053291;28;20221;-70
2022/03/25 01:08:51;;;;;;;19.40;14.70;;;;;;;6.56;nan;99006.78;5053742;28;20209;-70
2022/03/25 01:11:17;;;;;;;18.57;14.17;;;;;;;6.55;nan;99018.34;5053412;28;20660;-69
2022/03/25 01:13:44;;;;;;;20.10;14.73;;;;;;;6.55;nan;99018.34;5053484;28;20212;-69
2022/03/25 01:16:11;;;;;;;18.33;14.17;;;;;;;6.56;nan;99017.38;5053701;28;20212;-69
2022/03/25 01:18:37;;;;;;;22.47;14.50;;;;;;;6.51;nan;99020.50;5053579;28;20212;-69
2022/03/25 01:21:04;;;;;;;21.90;16.00;;;;;;;6.51;nan;99014.41;5053560;28;20212;-69
2022/03/25 01:23:31;;;;;;;21.80;15.67;;;;;;;6.49;nan;99008.47;5053194;28;20680;-69
2022/03/25 01:25:57;;;;;;;20.00;14.77;;;;;;;6.46;nan;99011.44;5053425;28;20235;-70
2022/03/25 01:28:24;;;;;;;19.43;14.27;;;;;;;6.39;nan;99015.75;5053488;28;20201;-70
2022/03/25 01:30:51;;;;;;;19.80;15.27;;;;;;;6.33;nan;99011.16;5053150;28;20205;-70
2022/03/25 01:33:18;;;;;;;23.30;15.23;;;;;;;6.27;nan;99009.16;5052799;28;20208;-70
2022/03/25 01:35:45;;;;;;;23.13;14.97;;;;;;;6.23;nan;99015.78;5053100;28;20658;-70
2022/03/25 01:38:13;;;;;;;20.00;15.53;;;;;;;6.17;nan;99011.19;5053403;28;20205;-70
2022/03/25 01:40:39;;;;;;;22.37;14.20;;;;;;;6.14;nan;99014.97;5053317;28;20237;-69
2022/03/25 01:43:07;;;;;;;22.67;14.50;;;;;;;6.13;nan;99009.88;5053269;28;20224;-69
2022/03/25 01:45:36;;;;;;;19.47;14.60;;;;;;;6.10;nan;99016.31;5052960;28;20229;-70
2022/03/25 01:48:07;;;;;;;19.80;15.20;;;;;;;6.06;nan;99014.19;5053280;28;20225;-70
2022/03/25 01:50:34;;;;;;;23.60;15.63;;;;;;;5.99;nan;99008.75;5053817;28;20525;-70
2022/03/25 01:53:01;;;;;;;24.80;15.40;;;;;;;5.96;nan;99010.88;5053288;28;20209;-70
2022/03/25 01:55:36;;;;;;;17.70;14.33;;;;;;;5.95;nan;99012.72;5053205;28;20225;-70
2022/03/25 01:58:03;;;;;;;22.83;15.90;;;;;;;5.95;nan;99025.06;5053329;28;20204;-69
2022/03/25 02:00:30;;;;;;;22.53;15.90;;;;;;;5.95;nan;99014.50;5053261;28;20206;-70
2022/03/25 02:02:56;;;;;;;24.30;14.30;;;;;;;5.96;nan;99021.44;5053181;28;20205;-69
2022/03/25 02:05:23;;;;;;;20.77;15.17;;;;;;;5.98;nan;99022.09;5053032;28;20225;-70
2022/03/25 02:07:50;;;;;;;23.50;16.17;;;;;;;5.82;nan;99025.56;5052731;28;20695;-70
2022/03/25 02:10:18;;;;;;;24.90;15.47;;;;;;;5.77;nan;99019.09;5053132;28;20215;-70
2022/03/25 02:12:45;;;;;;;22.97;15.03;;;;;;;5.79;nan;99014.50;5053142;28;20235;-69
2022/03/25 02:15:12;;;;;;;21.93;15.47;;;;;;;5.81;nan;99020.47;5052996;28;20228;-70
2022/03/25 02:17:39;;;;;;;20.80;15.47;;;;;;;5.77;nan;99022.56;5053668;28;20205;-69
2022/03/25 02:20:09;;;;;;;21.97;15.53;;;;;;;5.72;nan;99029.31;5056881;28;20217;-70
2022/03/25 02:22:40;;;;;;;22.93;15.60;;;;;;;5.65;nan;99023.06;5056824;28;20214;-70
2022/03/25 02:25:09;;;;;;;24.57;15.13;;;;;;;5.58;nan;99022.91;5056772;28;20236;-69
2022/03/25 02:27:39;;;;;;;20.53;14.60;;;;;;;5.55;nan;99027.66;5056346;28;20742;-70
2022/03/25 02:30:08;;;;;;;19.60;14.90;;;;;;;5.53;nan;99024.38;5056562;28;20242;-70
2022/03/25 02:32:35;;;;;;;19.67;14.80;;;;;;;5.59;nan;99021.91;5056396;28;20213;-70
2022/03/25 02:35:02;;;;;;;22.77;15.73;;;;;;;5.60;nan;99022.72;5056271;28;20241;-70
2022/03/25 02:37:28;;;;;;;21.20;15.30;;;;;;;5.53;nan;99019.94;5056509;28;20208;-69
2022/03/25 02:39:55;;;;;;;22.60;15.23;;;;;;;5.49;nan;99010.69;5056198;28;20566;-70
2022/03/25 02:42:22;;;;;;;18.43;15.13;;;;;;;5.47;nan;99017.13;5056415;28;20216;-70
2022/03/25 02:44:48;;;;;;;19.43;14.77;;;;;;;5.46;nan;99018.09;5056405;28;20229;-70
2022/03/25 02:47:15;;;;;;;21.87;15.43;;;;;;;5.39;nan;99014.47;5056386;28;20225;-70
2022/03/25 02:49:42;;;;;;;24.77;15.47;;;;;;;5.34;nan;99020.22;5056338;28;20205;-70
2022/03/25 02:52:08;;;;;;;21.73;15.57;;;;;;;5.34;nan;99019.41;5056195;28;20202;-70
2022/03/25 02:54:35;;;;;;;20.83;15.30;;;;;;;5.30;nan;99016.25;5055928;28;20232;-70
2022/03/25 02:57:02;;;;;;;20.70;14.67;;;;;;;5.24;nan;99019.56;5055835;28;20208;-69
2022/03/25 02:59:28;;;;;;;20.87;14.43;;;;;;;5.23;nan;99015.28;5055802;28;20663;-70
2022/03/25 03:01:55;;;;;;;22.00;15.13;;;;;;;5.27;nan;99023.69;5056056;28;20228;-69
2022/03/25 03:04:21;;;;;;;24.07;14.60;;;;;;;5.26;nan;99016.75;5055930;28;20225;-70
2022/03/25 03:06:47;;;;;;;19.53;14.43;;;;;;;5.24;nan;99014.28;5055868;28;20222;-71
2022/03/25 03:09:14;;;;;;;20.47;14.43;;;;;;;5.17;nan;99012.47;5055906;28;20209;-70
2022/03/25 03:11:40;;;;;;;20.57;14.97;;;;;;;5.21;nan;99014.59;5055540;28;20212;-70
2022/03/25 03:14:07;;;;;;;20.13;15.23;;;;;;;5.23;nan;99014.44;5055716;28;20610;-70
2022/03/25 03:16:33;;;;;;;22.27;14.03;;;;;;;5.18;nan;99016.75;5056350;28;20209;-71
2022/03/25 03:18:59;;;;;;;20.67;14.83;;;;;;;5.18;nan;99006.19;5056107;28;20205;-70
2022/03/25 03:21:26;;;;;;;20.53;15.37;;;;;;;5.10;nan;99016.72;5055723;28;20205;-70
2022/03/25 03:23:53;;;;;;;21.60;14.87;;;;;;;5.09;nan;99015.06;5055535;28;20221;-70
2022/03/25 03:26:20;;;;;;;20.37;15.30;;;;;;;5.08;nan;99008.16;5055581;28;20201;-70
2022/03/25 03:28:47;;;;;;;24.20;15.27;;;;;;;5.04;nan;99012.94;5054642;28;20391;-70
2022/03/25 03:31:14;;;;;;;23.00;15.23;;;;;;;5.01;nan;99007.13;5054968;28;20205;-70
2022/03/25 03:33:41;;;;;;;23.40;15.60;;;;;;;5.02;nan;99011.44;5054985;28;20232;-70
2022/03/25 03:36:07;;;;;;;20.60;15.10;;;;;;;5.00;nan;99006.31;5055488;28;20209;-70
2022/03/25 03:38:34;;;;;;;20.23;14.93;;;;;;;4.97;nan;99011.09;5055086;28;20603;-70
2022/03/25 03:41:01;;;;;;;20.13;15.30;;;;;;;4.87;nan;99010.38;5055368;28;20205;-70
2022/03/25 03:43:27;;;;;;;21.97;14.33;;;;;;;4.86;nan;99008.75;5055359;28;20211;-70
2022/03/25 03:45:53;;;;;;;18.60;14.57;;;;;;;4.92;nan;99013.38;5056007;28;20209;-70
2022/03/25 03:48:20;;;;;;;21.37;15.37;;;;;;;4.88;nan;99009.44;5056208;28;20233;-70
2022/03/25 03:50:46;;;;;;;21.50;14.93;;;;;;;4.88;nan;99006.78;5055160;28;20201;-70
2022/03/25 03:53:12;;;;;;;20.23;15.23;;;;;;;4.84;nan;99002.81;5054794;28;20205;-70
2022/03/25 03:55:39;;;;;;;24.43;15.47;;;;;;;4.84;nan;99000.19;5054763;28;20231;-70
2022/03/25 03:58:05;;;;;;;18.97;15.23;;;;;;;4.78;nan;99001.66;5055028;28;20205;-70
2022/03/25 04:00:32;;;;;;;22.20;16.13;;;;;;;4.80;nan;99004.94;5055032;28;20206;-71
2022/03/25 04:02:59;;;;;;;22.20;15.43;;;;;;;4.79;nan;99007.75;5054644;28;20248;-70
2022/03/25 04:05:25;;;;;;;21.03;15.10;;;;;;;4.77;nan;99007.06;5054574;28;20232;-70
2022/03/25 04:07:51;;;;;;;23.10;15.40;;;;;;;4.75;nan;98998.50;5054694;28;20221;-70
2022/03/25 04:10:19;;;;;;;21.37;14.23;;;;;;;4.74;nan;98999.50;5054245;28;20213;-71
2022/03/25 04:12:46;;;;;;;23.00;15.50;;;;;;;4.72;nan;99001.47;5054372;28;20215;-70
2022/03/25 04:15:15;;;;;;;22.23;15.37;;;;;;;4.72;nan;98991.75;5054641;28;20233;-70
2022/03/25 04:17:43;;;;;;;24.33;16.17;;;;;;;4.68;nan;98990.44;5054609;28;20208;-70
2022/03/25 04:20:13;;;;;;;21.53;15.13;;;;;;;4.71;nan;99000.63;5054379;28;20549;-70
2022/03/25 04:22:39;;;;;;;19.07;15.10;;;;;;;4.70;nan;99004.25;5054344;28;20205;-70
2022/03/25 04:25:07;;;;;;;19.27;14.87;;;;;;;4.68;nan;99006.22;5054317;28;20222;-70
2022/03/25 04:27:34;;;;;;;21.17;14.83;;;;;;;4.69;nan;98996.50;5054403;28;20248;-70
2022/03/25 04:30:00;;;;;;;21.23;15.27;;;;;;;4.67;nan;99001.13;5054362;28;20202;-70
2022/03/25 04:32:28;;;;;;;21.83;14.43;;;;;;;4.63;nan;98999.78;5054103;28;20204;-70
2022/03/25 04:34:54;;;;;;;22.07;14.50;;;;;;;4.65;nan;99000.47;5053500;28;20279;-70
2022/03/25 04:37:20;;;;;;;19.63;15.27;;;;;;;4.62;nan;98995.50;5053863;28;20208;-70
2022/03/25 04:39:47;;;;;;;21.43;15.70;;;;;;;4.55;nan;99008.47;5053993;28;20201;-70
2022/03/25 04:42:13;;;;;;;20.50;14.53;;;;;;;4.52;nan;99000.88;5053720;28;20212;-70
2022/03/25 04:44:39;;;;;;;26.27;16.13;;;;;;;4.51;nan;98998.41;5053880;28;20587;-70
2022/03/25 04:47:06;;;;;;;21.20;15.30;;;;;;;4.51;nan;99006.28;5053897;28;20554;-69
2022/03/25 04:49:32;;;;;;;23.43;14.90;;;;;;;4.47;nan;99007.63;5053861;28;20209;-69
2022/03/25 04:51:59;;;;;;;23.10;15.43;;;;;;;4.51;nan;99011.56;5053524;28;20209;-70
2022/03/25 04:54:25;;;;;;;21.17;15.37;;;;;;;4.53;nan;99012.25;5053474;28;20611;-69
2022/03/25 04:56:51;;;;;;;20.83;16.03;;;;;;;4.52;nan;99011.41;5053718;28;20569;-69
2022/03/25 04:59:18;;;;;;;21.53;15.30;;;;;;;4.53;nan;99012.25;5053490;28;20226;-69
2022/03/25 05:01:44;;;;;;;20.90;15.10;;;;;;;4.49;nan;99021.44;5053576;28;20208;-69
2022/03/25 05:04:10;;;;;;;21.17;15.23;;;;;;;4.47;nan;99018.97;5053550;28;20225;-69
2022/03/25 05:06:37;;;;;;;19.70;14.90;;;;;;;4.52;nan;99010.59;5054098;28;20201;-69
2022/03/25 05:09:03;;;;;;;19.47;14.50;;;;;;;4.46;nan;99009.41;5053648;28;20209;-69
2022/03/25 05:11:29;;;;;;;20.80;14.97;;;;;;;4.47;nan;99012.88;5053482;28;20206;-69
2022/03/25 05:13:56;;;;;;;22.83;14.93;;;;;;;4.44;nan;99014.00;5053491;28;20232;-69
2022/03/25 05:16:22;;;;;;;20.47;14.83;;;;;;;4.40;nan;99031.13;5053477;28;20231;-69
2022/03/25 05:18:48;;;;;;;25.43;14.83;;;;;;;4.40;nan;99017.13;5053144;28;20216;-69
2022/03/25 05:21:15;;;;;;;22.47;14.60;;;;;;;4.37;nan;99018.25;5054035;28;20209;-69
2022/03/25 05:23:41;;;;;;;20.37;15.97;;;;;;;4.38;nan;99017.25;5052988;28;20607;-69
2022/03/25 05:26:07;;;;;;;21.43;15.70;;;;;;;4.36;nan;99021.03;5053304;28;20232;-69
2022/03/25 05:28:34;;;;;;;22.43;15.43;;;;;;;4.33;nan;99016.06;5053741;28;20228;-69
2022/03/25 05:31:00;;;;;;;22.57;14.80;;;;;;;4.34;nan;99018.56;5053215;28;20250;-69
2022/03/25 05:33:27;;;;;;;22.17;15.57;;;;;;;4.37;nan;99017.41;5053234;28;20201;-69
2022/03/25 05:35:53;;;;;;;21.00;14.93;;;;;;;4.40;nan;99014.47;5052860;28;20219;-69
2022/03/25 05:38:19;;;;;;;25.57;15.10;;;;;;;4.41;nan;99021.38;5052927;28;20224;-69
2022/03/25 05:40:46;;;;;;;23.07;16.00;;;;;;;4.45;nan;99014.84;5052749;28;20231;-69
2022/03/25 05:43:14;;;;;;;20.90;14.53;;;;;;;4.48;nan;99017.16;5052577;28;20211;-69
2022/03/25 05:45:40;;;;;;;20.33;15.23;;;;;;;4.51;nan;99019.47;5052384;28;20261;-69
2022/03/25 05:48:07;;;;;;;24.00;16.00;;;;;;;4.56;nan;99018.00;5052558;28;20236;-69
2022/03/25 05:50:34;;;;;;;23.47;15.60;;;;;;;4.61;nan;99030.72;5052491;28;20243;-69
2022/03/25 05:53:01;;;;;;;24.50;15.00;;;;;;;4.72;nan;99038.34;5053852;28;20660;-69
2022/03/25 05:55:27;;;;;;;21.87;15.33;;;;;;;4.76;nan;99031.75;5056570;28;20252;-69
2022/03/25 05:57:53;;;;;;;23.33;15.53;;;;;;;4.82;nan;99028.50;5056845;28;20207;-69
2022/03/25 06:00:20;;;;;;;19.43;14.83;;;;;;;4.77;nan;99030.78;5056856;28;20204;-69
2022/03/25 06:02:47;;;;;;;19.80;15.50;;;;;;;4.77;nan;99036.88;5056454;28;20205;-69
2022/03/25 06:05:14;;;;;;;22.30;15.20;;;;;;;4.89;nan;99029.53;5056692;28;20244;-69
2022/03/25 06:07:43;;;;;;;20.90;14.93;;;;;;;4.84;nan;99027.34;5057168;28;20229;-69
2022/03/25 06:10:12;;;;;;;20.87;15.03;;;;;;;4.97;nan;99038.25;5056669;28;20205;-69
2022/03/25 06:12:39;;;;;;;17.93;15.40;;;;;;;4.96;nan;99044.53;5056503;28;20326;-69
2022/03/25 06:15:06;;;;;;;24.97;16.13;;;;;;;5.07;nan;99041.59;5056010;28;20226;-69
2022/03/25 06:17:33;;;;;;;22.27;15.63;;;;;;;5.18;nan;99045.72;5056295;28;20201;-69
2022/03/25 06:20:00;;;;;;;22.57;16.17;;;;;;;5.18;nan;99046.56;5056223;28;20575;-69
2022/03/25 06:22:27;;;;;;;21.97;15.37;;;;;;;5.18;nan;99051.84;5055682;28;20697;-69
2022/03/25 06:24:53;;;;;;;21.43;15.70;;;;;;;5.22;nan;99041.78;5055808;28;20741;-69
2022/03/25 06:27:21;;;;;;;21.90;15.43;;;;;;;5.23;nan;99052.19;5055869;28;20683;-69
2022/03/25 06:29:47;;;;;;;22.30;16.17;;;;;;;5.30;nan;99047.09;5056954;28;20227;-70
2022/03/25 06:32:13;;;;;;;26.70;16.23;;;;;;;5.53;nan;99050.75;5056308;28;20220;-69
2022/03/25 06:34:40;;;;;;;20.23;14.87;;;;;;;5.49;nan;99058.19;5055615;28;20233;-69
2022/03/25 06:37:06;;;;;;;20.40;15.23;;;;;;;5.45;nan;99054.22;5055983;28;20207;-69
2022/03/25 06:39:32;;;;;;;21.40;15.40;;;;;;;5.56;nan;99053.88;5055809;28;20209;-69
2022/03/25 06:41:59;;;;;;;22.43;14.53;;;;;;;5.71;nan;99064.63;5055311;28;20207;-71
2022/03/25 06:44:25;;;;;;;23.97;15.70;;;;;;;5.83;nan;99060.72;5055864;28;20236;-69
2022/03/25 06:46:51;;;;;;;19.53;15.70;;;;;;;5.69;nan;99056.03;5055839;28;20205;-68
2022/03/25 06:49:18;;;;;;;22.17;15.77;;;;;;;5.82;nan;99067.78;5055359;28;20225;-68
2022/03/25 06:51:44;;;;;;;22.57;15.53;;;;;;;5.98;nan;99070.41;5055358;28;20208;-67
2022/03/25 06:54:11;;;;;;;21.73;15.23;;;;;;;6.02;nan;99076.22;5054949;28;20565;-68
2022/03/25 06:56:38;;;;;;;20.13;14.73;;;;;;;6.09;nan;99066.63;5055080;28;20258;-68
2022/03/25 06:59:05;;;;;;;18.87;15.00;;;;;;;6.23;nan;99073.88;5055053;28;20207;-71
2022/03/25 07:01:32;;;;;;;27.70;16.20;;;;;;;6.24;nan;99075.53;5055494;28;20205;-71
2022/03/25 07:03:59;;;;;;;22.57;15.73;;;;;;;6.27;nan;99078.66;5055059;28;20283;-68
2022/03/25 07:06:26;;;;;;;22.13;15.93;;;;;;;6.22;nan;99070.44;5054769;28;20212;-68
2022/03/25 07:08:57;;;;;;;21.13;16.37;;;;;;;6.28;nan;99076.84;5054805;28;20585;-68
2022/03/25 07:11:25;;;;;;;22.10;15.73;;;;;;;6.32;nan;99072.88;5054933;28;20586;-70
2022/03/25 07:13:52;;;;;;;21.37;16.00;;;;;;;6.41;nan;99077.16;5054985;28;20279;-69
2022/03/25 07:16:19;;;;;;;24.63;17.10;;;;;;;6.58;nan;99081.41;5055368;28;20205;-69
2022/03/25 07:18:46;;;;;;;19.73;15.40;;;;;;;6.68;nan;99087.31;5055165;28;20213;-69
2022/03/25 07:21:13;;;;;;;23.83;16.97;;;;;;;6.69;nan;99092.44;5055086;28;20249;-70
2022/03/25 07:23:40;;;;;;;22.73;16.50;;;;;;;6.74;nan;99091.94;5054586;28;20231;-68
2022/03/25 07:26:07;;;;;;;25.83;17.37;;;;;;;6.66;nan;99089.31;5055668;28;20209;-68
2022/03/25 07:28:33;;;;;;;23.60;17.27;;;;;;;6.63;nan;99098.41;5054609;28;20255;-69
2022/03/25 07:31:00;;;;;;;22.83;17.00;;;;;;;6.70;nan;99101.22;5054813;28;20665;-70
2022/03/25 07:33:27;;;;;;;22.23;17.77;;;;;;;6.87;nan;99097.53;5054893;28;20205;-70
2022/03/25 07:35:53;;;;;;;23.53;16.47;;;;;;;6.98;nan;99097.16;5054616;28;20221;-69
2022/03/25 07:38:19;;;;;;;21.90;16.43;;;;;;;7.06;nan;99090.00;5054595;28;20668;-69
2022/03/25 07:40:46;;;;;;;22.90;16.57;;;;;;;7.15;nan;99099.53;5054732;28;20228;-70
2022/03/25 07:43:12;;;;;;;23.50;17.50;;;;;;;7.29;nan;99098.81;5054857;28;20205;-69
2022/03/25 07:45:39;;;;;;;23.53;17.17;;;;;;;7.32;nan;99100.28;5054565;28;20727;-70
2022/03/25 07:48:05;;;;;;;26.10;17.70;;;;;;;7.48;nan;99098.41;5054786;28;20232;-69
2022/03/25 07:50:31;;;;;;;25.63;17.60;;;;;;;7.59;nan;99095.34;5054553;28;20210;-70
2022/03/25 07:52:58;;;;;;;26.83;18.13;;;;;;;7.65;nan;99092.00;5054561;28;20568;-70
2022/03/25 07:55:25;;;;;;;22.97;17.37;;;;;;;7.90;nan;99093.50;5054563;28;20251;-70
2022/03/25 07:57:51;;;;;;;26.53;18.30;;;;;;;7.84;nan;99104.78;5054690;28;20231;-70
2022/03/25 08:00:19;;;;;;;23.73;16.60;;;;;;;8.16;nan;99109.00;5054634;28;20259;-70
2022/03/25 08:02:51;;;;;;;24.70;18.27;;;;;;;8.10;nan;99099.13;5054489;28;20668;-70
2022/03/25 08:05:18;;;;;;;23.10;18.13;;;;;;;8.10;nan;99104.44;5054307;28;20708;-70
2022/03/25 08:07:49;;;;;;;21.57;18.07;;;;;;;8.18;nan;99109.66;5053836;28;20244;-69
2022/03/25 08:10:17;;;;;;;25.03;18.30;;;;;;;8.19;nan;99109.47;5048773;28;20205;-69
2022/03/25 08:12:44;;;;;;;28.77;19.20;;;;;;;8.26;nan;99107.81;5054595;28;20212;-69
2022/03/25 08:15:11;;;;;;;28.70;18.87;;;;;;;8.42;nan;99105.00;5053403;28;20319;-69
2022/03/25 08:17:55;;;;;;;28.93;18.27;;;;;;;8.61;nan;99108.97;5054221;28;20572;-69
2022/03/25 08:20:26;;;;;;;26.43;18.33;;;;;;;8.72;nan;99108.50;5053953;28;20209;-69
2022/03/25 08:22:53;;;;;;;25.83;19.23;;;;;;;9.07;nan;99107.78;5054120;28;20205;-69
2022/03/25 08:28:05;;;;;;;27.07;19.37;;;;;;;9.04;nan;99108.97;5053802;28;20200;-69
2022/03/25 08:30:32;;;;;;;26.80;18.40;;;;;;;9.27;nan;99115.00;5054145;28;20209;-70
2022/03/25 08:32:59;;;;;;;25.83;18.80;;;;;;;9.48;nan;99111.56;5055023;28;20212;-70
2022/03/25 08:35:29;;;;;;;34.00;19.50;;;;;;;9.59;nan;99114.56;5053617;28;20236;-70
2022/03/25 08:37:56;;;;;;;25.83;18.53;;;;;;;9.65;nan;99110.34;5054428;28;20636;-70
2022/03/25 08:40:26;;;;;;;33.03;20.13;;;;;;;9.73;nan;99112.91;5053937;28;20255;-70
2022/03/25 08:42:53;;;;;;;29.33;20.67;;;;;;;9.67;nan;99109.16;5053511;28;20698;-69
2022/03/25 08:45:19;;;;;;;28.43;20.27;;;;;;;9.94;nan;99104.94;5053526;28;20225;-69
2022/03/25 08:47:48;;;;;;;33.20;20.77;;;;;;;9.86;nan;99100.56;5053701;28;20209;-69
2022/03/25 08:50:16;;;;;;;27.50;19.60;;;;;;;10.09;nan;99103.09;5053932;28;20209;-70
2022/03/25 08:52:47;;;;;;;26.50;20.00;;;;;;;10.23;nan;99099.53;5053667;28;20204;-70
2022/03/25 08:55:14;;;;;;;27.50;19.83;;;;;;;10.20;nan;99105.22;5053280;28;20795;-70
2022/03/25 08:57:41;;;;;;;33.30;20.63;;;;;;;10.27;nan;99106.13;5053442;28;20212;-69
2022/03/25 09:00:11;;;;;;;30.87;20.57;;;;;;;10.46;nan;99100.13;5053310;28;20205;-70
2022/03/25 09:02:43;;;;;;;34.37;21.47;;;;;;;10.24;nan;99098.50;5053377;28;20196;-69
2022/03/25 09:05:10;;;;;;;27.47;19.87;;;;;;;10.55;nan;99104.28;5053413;28;20231;-69
2022/03/25 09:07:37;;;;;;;26.77;20.50;;;;;;;10.74;nan;99107.09;5053376;28;20205;-69
2022/03/25 09:10:08;;;;;;;28.43;19.23;;;;;;;10.86;nan;99108.19;5053568;28;20205;-69
2022/03/25 09:12:35;;;;;;;28.37;20.20;;;;;;;11.04;nan;99105.84;5053429;28;20300;-69
2022/03/25 09:15:03;;;;;;;33.03;21.23;;;;;;;10.92;nan;99101.28;5052605;28;20741;-70
2022/03/25 09:17:30;;;;;;;31.60;21.93;;;;;;;11.11;nan;99111.19;5053465;28;20205;-69
2022/03/25 09:19:56;;;;;;;31.37;21.90;;;;;;;11.13;nan;99112.66;5053328;28;20208;-70
2022/03/25 09:22:23;;;;;;;30.80;21.10;;;;;;;11.42;nan;99097.41;5053089;28;20667;-70
2022/03/25 09:24:49;;;;;;;33.73;20.87;;;;;;;11.50;nan;99106.06;5053319;28;20228;-70
2022/03/25 09:27:16;;;;;;;33.27;21.23;;;;;;;11.69;nan;99099.19;5053397;28;20201;-70
2022/03/25 09:29:44;;;;;;;30.10;21.60;;;;;;;12.06;nan;99099.47;5053216;28;20259;-70
2022/03/25 09:32:11;;;;;;;31.87;22.17;;;;;;;12.17;nan;99098.06;5053011;28;20259;-70
2022/03/25 09:37:21;;;;;;;32.80;22.43;;;;;;;12.07;nan;99102.97;5052792;28;20176;-70
2022/03/25 09:39:50;;;;;;;31.97;22.53;;;;;;;12.25;nan;99106.66;5052876;28;20209;-70
2022/03/25 09:42:16;;;;;;;35.80;22.50;;;;;;;12.42;nan;99107.91;5052518;28;20574;-70
2022/03/25 09:44:44;;;;;;;28.17;22.70;;;;;;;12.64;nan;99101.34;5052764;28;20236;-70
2022/03/25 09:47:12;;;;;;;30.80;23.47;;;;;;;12.74;nan;99100.91;5053064;28;20255;-71
2022/03/25 09:49:39;;;;;;;36.70;23.20;;;;;;;12.65;nan;99104.81;5052863;28;20230;-70
2022/03/25 09:52:06;;;;;;;31.17;22.43;;;;;;;12.85;nan;99100.28;5052722;28;20592;-70
2022/03/25 09:54:34;;;;;;;28.17;22.27;;;;;;;12.96;nan;99105.81;5052871;28;20225;-70
2022/03/25 09:57:01;;;;;;;31.97;23.23;;;;;;;13.30;nan;99096.72;5052666;28;20214;-70
2022/03/25 09:59:28;;;;;;;30.77;22.40;;;;;;;13.48;nan;99099.53;5052884;28;20198;-70
2022/03/25 10:01:55;;;;;;;32.73;23.50;;;;;;;13.40;nan;99103.25;5052734;28;20215;-69
2022/03/25 10:04:47;;;;;;;31.07;23.47;;;;;;;13.96;nan;99098.84;5052850;28;20299;-68
2022/03/25 10:07:23;;;;;;;26.20;21.33;;;;;;;13.96;nan;99093.50;5052328;28;20566;-68
2022/03/25 10:10:06;;;;;;;29.33;23.13;;;;;;;14.20;nan;99097.28;5052717;28;20228;-68
2022/03/25 10:12:33;;;;;;;31.63;23.47;;;;;;;14.35;nan;99097.81;5052775;28;20190;-68
2022/03/25 10:15:25;;;;;;;29.13;22.30;;;;;;;14.38;nan;99094.69;5052641;28;20232;-68
2022/03/25 10:17:57;;;;;;;30.57;22.07;;;;;;;14.49;nan;99093.97;5052810;28;20312;-68
2022/03/25 10:20:29;;;;;;;26.33;21.53;;;;;;;14.55;nan;99098.44;5052838;28;20212;-68
2022/03/25 10:23:07;;;;;;;28.90;21.00;;;;;;;14.67;nan;99091.34;5053278;28;20201;-68
2022/03/25 10:25:55;;;;;;;27.23;21.60;;;;;;;14.68;nan;99091.13;5052711;28;20225;-69
2022/03/25 10:28:31;;;;;;;27.83;22.17;;;;;;;14.96;nan;99085.28;5052409;28;20209;-68
2022/03/25 10:31:07;;;;;;;25.33;20.83;;;;;;;14.93;nan;99086.56;5052419;28;20213;-69
2022/03/25 10:33:44;;;;;;;30.27;22.93;;;;;;;14.93;nan;99089.22;5052437;28;20200;-69
2022/03/25 10:36:12;;;;;;;25.83;21.03;;;;;;;14.91;nan;99085.97;5052419;28;20197;-69
2022/03/25 10:38:53;;;;;;;29.23;21.03;;;;;;;15.08;nan;99089.72;5053084;28;20201;-69
2022/03/25 10:41:23;;;;;;;29.73;21.27;;;;;;;15.14;nan;99087.97;5056111;28;20288;-68
2022/03/25 10:43:53;;;;;;;26.60;21.90;;;;;;;15.00;nan;99090.00;5055937;28;20236;-69
2022/03/25 10:46:39;;;;;;;27.83;22.27;;;;;;;14.84;nan;99092.44;5055909;28;20205;-69
2022/03/25 10:49:07;;;;;;;27.00;22.00;;;;;;;14.74;nan;99079.53;5055943;28;20225;-69
2022/03/25 10:51:42;;;;;;;23.23;20.50;;;;;;;15.18;nan;99087.31;5055671;28;20244;-69
2022/03/25 10:54:11;;;;;;;27.37;22.37;;;;;;;15.32;nan;99087.97;5055914;28;20586;-69
2022/03/25 10:56:52;;;;;;;28.73;21.83;;;;;;;15.42;nan;99072.25;5055623;28;20209;-69
2022/03/25 10:59:32;;;;;;;30.83;22.47;;;;;;;15.39;nan;99075.38;5055555;28;20205;-69
2022/03/25 11:02:05;;;;;;;25.47;21.73;;;;;;;15.67;nan;99073.78;5055506;28;20205;-69
2022/03/25 11:04:32;;;;;;;26.00;22.43;;;;;;;15.67;nan;99070.25;5055528;28;20236;-69
2022/03/25 11:07:01;;;;;;;29.97;22.03;;;;;;;15.71;nan;99069.59;5055633;28;20201;-69
2022/03/25 11:09:28;;;;;;;27.47;21.47;;;;;;;15.65;nan;99062.44;5055232;28;20221;-69
2022/03/25 11:11:56;;;;;;;24.57;21.90;;;;;;;15.84;nan;99057.88;5055546;28;20221;-68
2022/03/25 11:14:23;;;;;;;30.10;23.33;;;;;;;16.13;nan;99073.94;5054958;28;20225;-69
2022/03/25 11:16:49;;;;;;;26.47;21.73;;;;;;;15.97;nan;99060.34;5055235;28;20209;-71
2022/03/25 11:19:16;;;;;;;26.23;21.13;;;;;;;16.23;nan;99052.72;5055331;28;20207;-70
2022/03/25 11:21:47;;;;;;;26.17;21.30;;;;;;;16.13;nan;99057.84;5055469;28;20231;-70
2022/03/25 11:24:37;;;;;;;24.50;20.37;;;;;;;15.97;nan;99050.44;5055314;28;20233;-71
2022/03/25 11:27:09;;;;;;;23.83;20.10;;;;;;;16.18;nan;99054.44;5054945;28;20213;-71
2022/03/25 11:29:37;;;;;;;24.60;20.13;;;;;;;16.05;nan;99054.66;5054966;28;20217;-70
2022/03/25 11:32:04;;;;;;;25.60;20.57;;;;;;;16.38;nan;99046.91;5054846;28;20201;-71
2022/03/25 11:34:31;;;;;;;26.00;20.37;;;;;;;16.26;nan;99046.91;5054964;28;20597;-70
2022/03/25 11:37:28;;;;;;;24.37;21.50;;;;;;;16.38;nan;99041.53;5053205;28;20201;-70
2022/03/25 11:40:18;;;;;;;26.00;22.20;;;;;;;16.05;nan;99043.94;5053999;28;20190;-70
2022/03/25 11:42:51;;;;;;;27.30;22.23;;;;;;;16.08;nan;99032.72;5054825;28;20201;-71
2022/03/25 11:45:24;;;;;;;27.00;21.93;;;;;;;15.89;nan;99029.31;5054451;28;20727;-71
2022/03/25 11:48:00;;;;;;;25.53;21.43;;;;;;;15.95;nan;99031.06;5054755;28;20216;-70